Time;durP1;ratioP1;P1;durP2;ratioP2;P2;SDS_P1;SDS_P2;PMS_P1;PMS_P2;Temp;Humidity;BMP_temperature;BMP_pressure;BME280_temperature;BME280_humidity;BME280_pressure;Samples;Min_cycle;Max_cycle;Signal;HPM_P1;HPM_P2
2021/04/06 00:01:52;;;;;;;10.70;7.93;;;;;;;;;;10021315;29;20090;-61
2021/04/06 00:06:51;;;;;;;8.52;7.40;;;;;;;;;;10024046;29;20072;-61
2021/04/06 00:11:49;;;;;;;11.73;10.57;;;;;;;;;;10040618;29;20477;-61
2021/04/06 00:16:48;;;;;;;8.52;7.63;;;;;;;;;;10005528;29;20104;-61
2021/04/06 00:21:46;;;;;;;10.10;9.07;;;;;;;;;;10001410;29;20090;-61
2021/04/06 00:26:47;;;;;;;8.18;7.20;;;;;;;;;;10001086;29;20079;-62
2021/04/06 00:31:46;;;;;;;11.48;7.65;;;;;;;;;;10001687;29;20056;-61
2021/04/06 00:36:51;;;;;;;8.27;7.47;;;;;;;;;;10000779;29;20087;-61
2021/04/06 00:41:48;;;;;;;9.30;7.90;;;;;;;;;;10000721;29;20091;-61
2021/04/06 00:46:46;;;;;;;7.53;6.82;;;;;;;;;;10000366;29;20075;-61
2021/04/06 00:51:49;;;;;;;7.60;6.85;;;;;;;;;;10000398;29;20501;-61
2021/04/06 00:56:47;;;;;;;7.72;6.95;;;;;;;;;;10011439;29;20080;-61
2021/04/06 01:01:45;;;;;;;9.25;7.97;;;;;;;;;;10032303;29;20075;-61
2021/04/06 01:06:54;;;;;;;11.18;9.20;;;;;;;;;;10036902;29;20078;-61
2021/04/06 01:11:51;;;;;;;8.82;8.02;;;;;;;;;;10039643;29;20051;-61
2021/04/06 01:16:48;;;;;;;8.02;7.22;;;;;;;;;;10039618;29;20071;-61
2021/04/06 01:21:46;;;;;;;8.52;7.72;;;;;;;;;;10038006;29;20079;-61
2021/04/06 01:26:45;;;;;;;9.07;7.80;;;;;;;;;;10038083;29;20044;-61
2021/04/06 01:31:43;;;;;;;9.18;8.02;;;;;;;;;;10037999;29;20497;-61
2021/04/06 01:36:41;;;;;;;8.55;7.60;;;;;;;;;;10037419;29;20050;-60
2021/04/06 01:41:38;;;;;;;8.30;7.35;;;;;;;;;;10037144;29;20086;-61
2021/04/06 01:46:40;;;;;;;7.75;6.88;;;;;;;;;;10037424;29;20052;-62
2021/04/06 01:51:38;;;;;;;8.80;7.90;;;;;;;;;;10037577;29;20079;-61
2021/04/06 01:56:40;;;;;;;9.98;8.77;;;;;;;;;;10037101;29;20457;-61
2021/04/06 02:01:39;;;;;;;7.95;7.15;;;;;;;;;;10037653;29;20116;-61
2021/04/06 02:06:38;;;;;;;9.98;7.65;;;;;;;;;;10036784;29;20090;-61
2021/04/06 02:11:36;;;;;;;9.73;8.73;;;;;;;;;;10037007;29;20362;-60
2021/04/06 02:16:45;;;;;;;9.02;8.13;;;;;;;;;;10036990;29;20060;-61
2021/04/06 02:21:48;;;;;;;8.93;7.82;;;;;;;;;;10039999;29;20087;-60
2021/04/06 02:26:45;;;;;;;8.00;7.20;;;;;;;;;;10044330;29;20079;-60
2021/04/06 02:31:43;;;;;;;8.73;7.93;;;;;;;;;;10044522;29;20087;-61
2021/04/06 02:36:45;;;;;;;22.08;15.23;;;;;;;;;;10043830;29;20101;-60
2021/04/06 02:41:45;;;;;;;10.38;8.88;;;;;;;;;;10039847;29;20075;-61
2021/04/06 02:46:49;;;;;;;10.88;9.57;;;;;;;;;;10011598;29;20119;-61
2021/04/06 02:51:47;;;;;;;9.43;8.52;;;;;;;;;;10042119;29;20054;-61
2021/04/06 02:56:44;;;;;;;8.60;7.70;;;;;;;;;;10042625;29;20091;-61
2021/04/06 03:01:42;;;;;;;9.05;8.20;;;;;;;;;;10010859;29;20079;-61
2021/04/06 03:06:39;;;;;;;10.18;9.15;;;;;;;;;;10003677;29;20080;-60
2021/04/06 03:11:41;;;;;;;9.18;8.38;;;;;;;;;;10003215;29;20052;-60
2021/04/06 03:16:39;;;;;;;10.90;9.82;;;;;;;;;;10020942;29;20142;-61
2021/04/06 03:21:37;;;;;;;8.63;7.82;;;;;;;;;;10037775;29;20086;-61
2021/04/06 03:26:34;;;;;;;15.50;14.15;;;;;;;;;;10015310;29;20076;-61
2021/04/06 03:31:33;;;;;;;9.50;8.63;;;;;;;;;;10002776;29;20056;-62
2021/04/06 03:36:32;;;;;;;15.20;12.90;;;;;;;;;;10003207;29;20059;-61
2021/04/06 03:41:32;;;;;;;9.30;8.38;;;;;;;;;;10002150;29;20079;-62
2021/04/06 03:46:30;;;;;;;8.93;8.13;;;;;;;;;;10000416;29;20071;-61
2021/04/06 03:51:29;;;;;;;9.48;8.57;;;;;;;;;;10013243;29;20076;-62
2021/04/06 03:56:29;;;;;;;13.95;12.60;;;;;;;;;;10021813;29;20469;-61
2021/04/06 04:01:27;;;;;;;10.50;9.55;;;;;;;;;;10041023;29;20086;-61
2021/04/06 04:06:24;;;;;;;14.95;13.55;;;;;;;;;;10040277;29;20047;-61
2021/04/06 04:11:23;;;;;;;13.10;11.70;;;;;;;;;;10040516;29;20083;-61
2021/04/06 04:16:21;;;;;;;42.45;11.00;;;;;;;;;;10038315;29;20539;-61
2021/04/06 04:21:18;;;;;;;19.63;15.45;;;;;;;;;;10039995;29;20086;-61
2021/04/06 04:26:15;;;;;;;40.70;27.58;;;;;;;;;;10037956;29;20051;-61
2021/04/06 04:31:15;;;;;;;60.28;37.10;;;;;;;;;;10038292;29;20062;-62
2021/04/06 04:36:12;;;;;;;40.30;26.10;;;;;;;;;;10039634;29;20477;-60
2021/04/06 04:41:10;;;;;;;31.25;24.23;;;;;;;;;;10037989;29;20091;-63
2021/04/06 04:46:07;;;;;;;29.83;24.17;;;;;;;;;;10035449;29;20082;-62
2021/04/06 04:51:06;;;;;;;33.47;21.45;;;;;;;;;;10036157;29;20075;-62
2021/04/06 04:56:03;;;;;;;30.92;19.63;;;;;;;;;;10036448;29;20094;-62
2021/04/06 05:01:00;;;;;;;35.38;22.20;;;;;;;;;;10038625;29;20102;-61
2021/04/06 05:06:00;;;;;;;90.85;56.20;;;;;;;;;;10038941;29;20071;-62
2021/04/06 05:10:59;;;;;;;45.05;28.05;;;;;;;;;;10038286;29;20425;-60
2021/04/06 05:15:56;;;;;;;24.67;20.00;;;;;;;;;;10038291;29;20072;-61
2021/04/06 05:20:53;;;;;;;31.50;22.48;;;;;;;;;;10037909;29;20083;-61
2021/04/06 05:25:52;;;;;;;30.73;21.55;;;;;;;;;;10032675;29;20056;-62
2021/04/06 05:30:50;;;;;;;8.60;7.75;;;;;;;;;;10017439;29;20090;-61
2021/04/06 05:35:51;;;;;;;8.82;7.93;;;;;;;;;;10024867;29;20075;-61
2021/04/06 05:40:48;;;;;;;14.50;9.80;;;;;;;;;;10021770;29;20075;-59
2021/04/06 05:45:49;;;;;;;8.18;7.38;;;;;;;;;;10022580;29;20523;-59
2021/04/06 05:50:49;;;;;;;9.43;8.07;;;;;;;;;;10021491;29;20071;-59
2021/04/06 05:55:46;;;;;;;10.05;8.70;;;;;;;;;;10010436;29;20043;-60
2021/04/06 06:00:43;;;;;;;8.52;7.68;;;;;;;;;;10006326;29;20505;-59
2021/04/06 06:05:41;;;;;;;12.23;10.98;;;;;;;;;;10018874;29;20083;-59
2021/04/06 06:10:39;;;;;;;9.45;7.97;;;;;;;;;;10018636;29;20068;-60
2021/04/06 06:15:37;;;;;;;8.13;7.32;;;;;;;;;;10014156;29;20075;-60
2021/04/06 06:20:35;;;;;;;79.63;34.45;;;;;;;;;;10025930;29;20083;-59
2021/04/06 06:25:32;;;;;;;47.10;28.38;;;;;;;;;;10005827;29;20079;-60
2021/04/06 06:30:33;;;;;;;21.30;14.90;;;;;;;;;;10012498;29;20080;-60
2021/04/06 06:35:34;;;;;;;17.23;12.77;;;;;;;;;;10031317;29;20114;-61
2021/04/06 06:40:31;;;;;;;10.02;8.35;;;;;;;;;;10043580;29;20083;-61
2021/04/06 06:45:34;;;;;;;23.35;16.90;;;;;;;;;;10044331;29;20075;-62
2021/04/06 06:50:44;;;;;;;19.08;14.57;;;;;;;;;;10043229;29;20050;-61
2021/04/06 06:55:51;;;;;;;19.60;15.23;;;;;;;;;;10043146;29;20083;-63
2021/04/06 07:00:52;;;;;;;17.35;13.73;;;;;;;;;;10040309;29;20525;-61
2021/04/06 07:05:55;;;;;;;23.65;15.90;;;;;;;;;;10017493;29;20088;-61
2021/04/06 07:10:52;;;;;;;20.00;13.10;;;;;;;;;;10020953;29;20091;-61
2021/04/06 07:15:51;;;;;;;48.35;35.30;;;;;;;;;;10003593;29;20507;-61
2021/04/06 07:20:51;;;;;;;18.02;10.65;;;;;;;;;;10003487;29;20075;-62
2021/04/06 07:25:50;;;;;;;10.40;8.52;;;;;;;;;;10008109;29;20517;-63
2021/04/06 07:30:47;;;;;;;25.92;19.65;;;;;;;;;;10021389;29;20521;-61
2021/04/06 07:35:44;;;;;;;18.95;15.43;;;;;;;;;;10031030;29;20075;-62
2021/04/06 07:40:42;;;;;;;19.15;14.77;;;;;;;;;;10032853;29;20087;-64
2021/04/06 07:45:45;;;;;;;20.00;15.80;;;;;;;;;;10020983;29;20088;-63
2021/04/06 07:50:44;;;;;;;22.70;15.73;;;;;;;;;;10002901;29;20063;-63
2021/04/06 07:55:42;;;;;;;20.33;14.30;;;;;;;;;;10012146;29;20067;-61
2021/04/06 08:00:50;;;;;;;15.25;13.05;;;;;;;;;;10016190;29;20096;-63
2021/04/06 08:06:07;;;;;;;17.60;13.13;;;;;;;;;;10003625;29;20091;-61
2021/04/06 08:11:04;;;;;;;33.42;24.70;;;;;;;;;;10012618;29;20086;-63
2021/04/06 08:16:11;;;;;;;31.33;23.02;;;;;;;;;;10001774;29;20052;-61
2021/04/06 08:21:09;;;;;;;28.33;19.17;;;;;;;;;;10000001;29;20090;-61
2021/04/06 08:26:24;;;;;;;20.55;16.58;;;;;;;;;;10001754;29;20486;-63
2021/04/06 08:31:33;;;;;;;11.52;10.00;;;;;;;;;;10008808;29;20079;-58
2021/04/06 08:36:30;;;;;;;14.80;11.98;;;;;;;;;;10009125;29;20056;-60
2021/04/06 08:41:32;;;;;;;13.25;10.80;;;;;;;;;;10001537;29;20079;-60
2021/04/06 08:46:43;;;;;;;21.10;15.48;;;;;;;;;;10001606;29;20063;-59
2021/04/06 08:51:41;;;;;;;22.65;14.80;;;;;;;;;;10002911;29;20076;-58
2021/04/06 08:56:39;;;;;;;19.08;12.60;;;;;;;;;;10029839;29;20043;-57
2021/04/06 09:01:36;;;;;;;18.25;13.27;;;;;;;;;;10012759;29;20083;-58
2021/04/06 09:06:34;;;;;;;38.05;25.00;;;;;;;;;;10024547;29;20079;-58
2021/04/06 09:11:32;;;;;;;16.05;12.05;;;;;;;;;;10012658;29;20075;-58
2021/04/06 09:16:30;;;;;;;9.05;7.82;;;;;;;;;;9999558;29;20075;-60
2021/04/06 09:21:29;;;;;;;6.90;6.20;;;;;;;;;;9999317;29;20346;-60
2021/04/06 09:26:28;;;;;;;7.15;6.13;;;;;;;;;;10003983;29;20079;-58
2021/04/06 09:31:26;;;;;;;9.57;6.53;;;;;;;;;;10022977;29;20477;-59
2021/04/06 09:36:23;;;;;;;5.95;5.20;;;;;;;;;;10032121;29;20082;-60
2021/04/06 09:41:26;;;;;;;7.20;6.22;;;;;;;;;;9999222;29;20086;-60
2021/04/06 09:46:33;;;;;;;7.00;6.30;;;;;;;;;;9998629;29;20078;-60
2021/04/06 09:51:31;;;;;;;9.65;7.47;;;;;;;;;;9997313;29;20048;-60
2021/04/06 09:56:28;;;;;;;9.32;8.43;;;;;;;;;;9996209;29;20080;-60
2021/04/06 10:01:27;;;;;;;8.43;6.80;;;;;;;;;;9995987;29;20501;-60
2021/04/06 10:06:34;;;;;;;8.00;7.20;;;;;;;;;;9995976;29;20080;-60
2021/04/06 10:11:31;;;;;;;7.03;6.32;;;;;;;;;;9997787;29;20443;-59
2021/04/06 10:16:33;;;;;;;8.27;5.68;;;;;;;;;;9997445;29;20501;-60
2021/04/06 10:21:30;;;;;;;9.50;8.18;;;;;;;;;;9997541;29;20450;-60
2021/04/06 10:26:29;;;;;;;7.35;4.60;;;;;;;;;;9998019;29;20044;-59
2021/04/06 10:31:26;;;;;;;5.32;4.78;;;;;;;;;;9997787;29;20049;-59
2021/04/06 10:36:24;;;;;;;7.03;4.93;;;;;;;;;;9996875;29;20052;-59
2021/04/06 10:41:25;;;;;;;8.88;5.07;;;;;;;;;;9998176;29;20091;-59
2021/04/06 10:46:24;;;;;;;14.88;4.47;;;;;;;;;;10004150;29;20083;-59
2021/04/06 10:51:22;;;;;;;5.72;4.13;;;;;;;;;;10004447;29;20068;-60
2021/04/06 10:56:21;;;;;;;8.15;5.07;;;;;;;;;;10003663;29;20080;-59
2021/04/06 11:01:20;;;;;;;7.93;5.57;;;;;;;;;;10004049;29;20086;-60
2021/04/06 11:06:22;;;;;;;7.10;4.93;;;;;;;;;;10003341;29;20071;-59
2021/04/06 11:11:21;;;;;;;7.90;4.65;;;;;;;;;;10003399;29;20072;-60
2021/04/06 11:16:19;;;;;;;8.90;4.97;;;;;;;;;;10003839;29;20433;-59
2021/04/06 11:21:16;;;;;;;8.85;5.88;;;;;;;;;;10002671;29;20095;-60
2021/04/06 11:26:15;;;;;;;7.70;5.00;;;;;;;;;;10003055;29;20044;-61
2021/04/06 11:31:13;;;;;;;8.57;5.40;;;;;;;;;;10002252;29;20056;-60
2021/04/06 11:36:11;;;;;;;7.60;4.28;;;;;;;;;;10001156;29;20493;-61
2021/04/06 11:41:08;;;;;;;7.43;5.13;;;;;;;;;;10001932;29;20497;-60
2021/04/06 11:46:06;;;;;;;4.72;4.20;;;;;;;;;;10002650;29;20067;-59
2021/04/06 11:51:04;;;;;;;7.25;5.22;;;;;;;;;;10002184;29;20078;-60
2021/04/06 11:56:01;;;;;;;8.00;5.10;;;;;;;;;;10002392;29;20072;-60
2021/04/06 12:00:58;;;;;;;10.95;7.35;;;;;;;;;;10001812;29;20094;-60
2021/04/06 12:05:57;;;;;;;7.63;5.20;;;;;;;;;;10001777;29;20095;-60
2021/04/06 12:10:54;;;;;;;6.45;4.38;;;;;;;;;;10001548;29;20086;-59
2021/04/06 12:15:59;;;;;;;9.25;5.93;;;;;;;;;;10001518;29;20078;-60
2021/04/06 12:20:57;;;;;;;7.63;6.55;;;;;;;;;;10001154;29;20075;-60
2021/04/06 12:25:54;;;;;;;7.10;4.68;;;;;;;;;;10001323;29;20103;-60
2021/04/06 12:30:52;;;;;;;9.23;4.88;;;;;;;;;;10000732;29;20083;-59
2021/04/06 12:35:49;;;;;;;8.85;5.45;;;;;;;;;;10000595;29;20510;-59
2021/04/06 12:40:47;;;;;;;9.52;4.50;;;;;;;;;;10000715;29;20082;-62
2021/04/06 12:45:45;;;;;;;6.30;4.75;;;;;;;;;;10000782;29;20044;-61
2021/04/06 12:50:42;;;;;;;5.20;3.72;;;;;;;;;;10000204;29;20525;-61
2021/04/06 12:55:39;;;;;;;8.77;5.45;;;;;;;;;;9999854;29;20505;-62
2021/04/06 13:00:37;;;;;;;8.05;4.35;;;;;;;;;;9999055;29;20147;-63
2021/04/06 13:05:35;;;;;;;19.85;14.30;;;;;;;;;;9999141;29;20079;-63
2021/04/06 13:10:32;;;;;;;11.73;8.52;;;;;;;;;;9998133;29;20060;-62
2021/04/06 13:15:29;;;;;;;6.07;4.03;;;;;;;;;;9999330;29;20051;-63
2021/04/06 13:20:28;;;;;;;16.85;11.52;;;;;;;;;;9999151;29;20084;-62
2021/04/06 13:25:28;;;;;;;10.55;6.60;;;;;;;;;;9998404;29;20048;-63
2021/04/06 13:30:26;;;;;;;16.40;7.60;;;;;;;;;;9998002;29;20454;-62
2021/04/06 13:35:24;;;;;;;6.88;4.65;;;;;;;;;;9998636;29;20080;-62
2021/04/06 13:40:23;;;;;;;6.55;4.90;;;;;;;;;;9997703;29;20096;-62
2021/04/06 13:45:22;;;;;;;10.63;5.25;;;;;;;;;;9998055;29;20079;-62
2021/04/06 13:50:28;;;;;;;12.00;8.60;;;;;;;;;;9997549;29;20055;-61
2021/04/06 13:55:27;;;;;;;13.57;8.20;;;;;;;;;;9997575;29;20454;-61
2021/04/06 14:00:26;;;;;;;10.95;8.52;;;;;;;;;;9997243;29;20087;-62
2021/04/06 14:05:24;;;;;;;13.48;8.38;;;;;;;;;;9998519;29;20080;-62
2021/04/06 14:10:22;;;;;;;9.82;6.18;;;;;;;;;;9999251;29;20082;-62
2021/04/06 14:15:21;;;;;;;14.85;10.32;;;;;;;;;;9998112;29;20481;-63
2021/04/06 14:20:20;;;;;;;7.20;4.93;;;;;;;;;;10006225;29;20092;-63
2021/04/06 14:25:18;;;;;;;6.40;4.55;;;;;;;;;;10006362;29;20044;-62
2021/04/06 14:30:17;;;;;;;6.55;4.65;;;;;;;;;;10017236;29;20068;-62
2021/04/06 14:35:15;;;;;;;6.68;5.32;;;;;;;;;;10015962;29;20087;-62
2021/04/06 14:40:14;;;;;;;5.90;4.25;;;;;;;;;;10012783;29;20088;-62
2021/04/06 14:45:13;;;;;;;7.70;5.18;;;;;;;;;;10019658;29;20075;-62
2021/04/06 14:50:11;;;;;;;11.55;8.75;;;;;;;;;;10020852;29;20064;-62
2021/04/06 14:55:09;;;;;;;11.45;6.25;;;;;;;;;;10015250;29;20094;-62
2021/04/06 15:00:07;;;;;;;8.35;5.40;;;;;;;;;;10025772;29;20509;-62
2021/04/06 15:05:05;;;;;;;15.40;8.48;;;;;;;;;;10010851;29;20533;-61
2021/04/06 15:10:03;;;;;;;15.55;9.63;;;;;;;;;;10001982;29;20071;-61
2021/04/06 15:15:02;;;;;;;110.32;53.17;;;;;;;;;;10001810;29;20079;-61
2021/04/06 15:20:00;;;;;;;9.90;6.88;;;;;;;;;;10000673;29;20075;-62
2021/04/06 15:25:00;;;;;;;9.25;5.68;;;;;;;;;;10003973;29;20614;-61
2021/04/06 15:29:57;;;;;;;20.20;11.27;;;;;;;;;;10002920;29;20052;-62
2021/04/06 15:34:58;;;;;;;4.45;4.03;;;;;;;;;;10003858;29;20084;-61
2021/04/06 15:39:56;;;;;;;23.70;7.72;;;;;;;;;;10002921;29;20063;-61
2021/04/06 15:44:54;;;;;;;7.55;6.25;;;;;;;;;;10002032;29;20084;-62
2021/04/06 15:49:52;;;;;;;24.52;13.75;;;;;;;;;;10002361;29;20056;-62
2021/04/06 15:54:50;;;;;;;15.65;10.32;;;;;;;;;;10002579;29;20059;-62
2021/04/06 15:59:48;;;;;;;36.10;22.27;;;;;;;;;;10002110;29;20079;-62
2021/04/06 16:04:45;;;;;;;18.02;11.20;;;;;;;;;;10001441;29;20512;-61
2021/04/06 16:09:43;;;;;;;24.73;15.90;;;;;;;;;;10011642;29;20094;-61
2021/04/06 16:14:41;;;;;;;32.15;19.52;;;;;;;;;;10020619;29;20075;-61
2021/04/06 16:19:53;;;;;;;26.30;15.90;;;;;;;;;;10017046;29;20067;-61
2021/04/06 16:24:51;;;;;;;30.58;20.70;;;;;;;;;;10001895;29;20075;-61
2021/04/06 16:29:49;;;;;;;38.50;29.58;;;;;;;;;;10000602;29;20063;-60
2021/04/06 16:34:46;;;;;;;16.15;10.85;;;;;;;;;;10004911;29;20087;-61
2021/04/06 16:39:44;;;;;;;23.33;15.30;;;;;;;;;;10021631;29;20048;-61
2021/04/06 16:44:41;;;;;;;55.88;32.92;;;;;;;;;;10006898;29;20071;-62
2021/04/06 16:49:40;;;;;;;69.85;47.72;;;;;;;;;;10007311;29;20087;-63
2021/04/06 16:54:37;;;;;;;41.17;33.17;;;;;;;;;;10007521;29;20043;-63
2021/04/06 16:59:34;;;;;;;40.75;28.90;;;;;;;;;;10038590;29;20083;-63
2021/04/06 17:04:32;;;;;;;28.50;18.92;;;;;;;;;;10008427;29;20067;-60
2021/04/06 17:09:30;;;;;;;13.55;10.23;;;;;;;;;;10000401;29;20067;-60
2021/04/06 17:14:27;;;;;;;30.00;18.83;;;;;;;;;;9999395;29;20106;-61
2021/04/06 17:19:24;;;;;;;37.58;28.25;;;;;;;;;;10023558;29;20079;-61
2021/04/06 17:24:22;;;;;;;34.60;21.55;;;;;;;;;;10012169;29;20072;-62
2021/04/06 17:29:21;;;;;;;17.77;12.82;;;;;;;;;;10015908;29;20075;-63
2021/04/06 17:34:18;;;;;;;25.90;15.85;;;;;;;;;;10038456;29;20082;-64
2021/04/06 17:39:16;;;;;;;48.58;30.50;;;;;;;;;;10015060;29;20071;-61
2021/04/06 17:44:13;;;;;;;59.92;32.00;;;;;;;;;;9999422;29;20082;-62
2021/04/06 17:49:12;;;;;;;77.07;40.42;;;;;;;;;;9996995;29;20048;-62
2021/04/06 17:54:09;;;;;;;40.50;26.75;;;;;;;;;;10008484;29;20075;-61
2021/04/06 17:59:07;;;;;;;40.22;24.65;;;;;;;;;;10028149;29;20584;-61
2021/04/06 18:04:04;;;;;;;39.17;25.90;;;;;;;;;;10008594;29;20083;-62
2021/04/06 18:09:03;;;;;;;41.33;31.40;;;;;;;;;;10010363;29;20088;-62
2021/04/06 18:14:00;;;;;;;76.15;54.28;;;;;;;;;;10005900;29;20082;-62
2021/04/06 18:18:58;;;;;;;79.82;50.03;;;;;;;;;;10031800;29;20052;-62
2021/04/06 18:23:55;;;;;;;54.58;36.08;;;;;;;;;;10017955;29;20509;-61
2021/04/06 18:28:53;;;;;;;48.75;39.45;;;;;;;;;;9997769;29;20048;-61
2021/04/06 18:33:51;;;;;;;41.10;28.65;;;;;;;;;;9998471;29;20540;-62
2021/04/06 18:38:48;;;;;;;44.00;30.60;;;;;;;;;;9998516;29;20430;-63
2021/04/06 18:44:07;;;;;;;44.42;28.77;;;;;;;;;;9998061;29;20481;-62
2021/04/06 18:49:05;;;;;;;40.13;25.17;;;;;;;;;;9998005;29;20461;-62
2021/04/06 18:54:04;;;;;;;41.33;24.17;;;;;;;;;;9998437;29;20075;-63
2021/04/06 18:59:01;;;;;;;42.92;25.08;;;;;;;;;;9995426;29;20072;-62
2021/04/06 19:03:59;;;;;;;36.28;22.42;;;;;;;;;;10001894;29;20150;-63
2021/04/06 19:08:57;;;;;;;118.47;72.57;;;;;;;;;;10017733;29;20469;-61
2021/04/06 19:13:55;;;;;;;47.08;28.67;;;;;;;;;;10020147;29;20528;-61
2021/04/06 19:18:52;;;;;;;25.45;17.80;;;;;;;;;;10017591;29;20084;-61
2021/04/06 19:23:51;;;;;;;20.10;14.65;;;;;;;;;;10016254;29;20075;-61
2021/04/06 19:28:48;;;;;;;18.05;13.73;;;;;;;;;;10002720;29;20048;-64
2021/04/06 19:33:47;;;;;;;26.17;19.67;;;;;;;;;;10004201;29;20135;-62
2021/04/06 19:38:45;;;;;;;40.55;28.52;;;;;;;;;;10003601;29;20044;-63
2021/04/06 19:43:45;;;;;;;24.95;19.00;;;;;;;;;;10002601;29;20083;-61
2021/04/06 19:48:43;;;;;;;19.88;14.25;;;;;;;;;;10002720;29;20506;-62
2021/04/06 19:53:40;;;;;;;30.63;19.55;;;;;;;;;;10002513;29;20076;-62
2021/04/06 19:58:39;;;;;;;9.18;8.15;;;;;;;;;;10002388;29;20099;-62
2021/04/06 20:03:39;;;;;;;8.45;6.10;;;;;;;;;;10000786;29;20533;-61
2021/04/06 20:08:37;;;;;;;9.48;7.32;;;;;;;;;;10006328;29;20471;-62
2021/04/06 20:13:34;;;;;;;10.15;6.72;;;;;;;;;;10018362;29;20078;-62
2021/04/06 20:18:33;;;;;;;9.38;7.03;;;;;;;;;;10024619;29;20538;-62
2021/04/06 20:23:32;;;;;;;11.98;7.00;;;;;;;;;;10040441;29;20079;-62
2021/04/06 20:28:30;;;;;;;9.60;6.70;;;;;;;;;;10011354;29;20075;-62
2021/04/06 20:33:33;;;;;;;7.95;5.93;;;;;;;;;;10020353;29;20051;-62
2021/04/06 20:38:33;;;;;;;12.75;10.00;;;;;;;;;;10007801;29;20079;-61
2021/04/06 20:43:30;;;;;;;39.33;28.40;;;;;;;;;;10029557;29;20047;-62
2021/04/06 20:48:27;;;;;;;10.18;7.90;;;;;;;;;;10034816;29;20051;-61
2021/04/06 20:53:25;;;;;;;10.10;8.05;;;;;;;;;;10000677;29;20055;-62
2021/04/06 20:58:23;;;;;;;13.88;9.23;;;;;;;;;;10000806;29;20048;-62
2021/04/06 21:03:21;;;;;;;11.05;9.00;;;;;;;;;;10000496;29;20080;-61
2021/04/06 21:08:18;;;;;;;11.95;7.90;;;;;;;;;;9999730;29;20079;-62
2021/04/06 21:13:15;;;;;;;8.52;6.88;;;;;;;;;;9999038;29;20085;-62
2021/04/06 21:18:14;;;;;;;13.07;7.72;;;;;;;;;;10000255;29;20056;-62
2021/04/06 21:23:11;;;;;;;11.40;8.20;;;;;;;;;;9999994;29;20086;-62
2021/04/06 21:28:08;;;;;;;9.90;7.55;;;;;;;;;;9998818;29;20080;-63
2021/04/06 21:33:06;;;;;;;9.68;7.97;;;;;;;;;;10018237;29;20059;-62
2021/04/06 21:38:04;;;;;;;13.57;8.88;;;;;;;;;;10012032;29;20078;-61
2021/04/06 21:43:02;;;;;;;11.45;7.53;;;;;;;;;;10034112;29;20071;-62
2021/04/06 21:47:59;;;;;;;11.65;7.90;;;;;;;;;;10030343;29;20052;-62
2021/04/06 21:52:56;;;;;;;9.48;7.15;;;;;;;;;;9999336;29;20083;-61
2021/04/06 21:57:55;;;;;;;10.23;7.50;;;;;;;;;;9998750;29;20056;-62
2021/04/06 22:02:52;;;;;;;9.90;8.05;;;;;;;;;;9998616;29;20098;-62
2021/04/06 22:07:50;;;;;;;12.77;7.40;;;;;;;;;;9999117;29;20456;-62
2021/04/06 22:12:47;;;;;;;9.27;7.43;;;;;;;;;;9998656;29;20106;-62
2021/04/06 22:17:46;;;;;;;11.48;8.50;;;;;;;;;;9998798;29;20048;-62
2021/04/06 22:22:44;;;;;;;10.48;7.90;;;;;;;;;;9997508;29;20095;-62
2021/04/06 22:27:41;;;;;;;13.43;10.82;;;;;;;;;;9996370;29;20060;-62
2021/04/06 22:32:38;;;;;;;16.58;11.30;;;;;;;;;;9998551;29;20040;-64
2021/04/06 22:37:37;;;;;;;13.35;10.82;;;;;;;;;;9998276;29;20060;-62
2021/04/06 22:42:34;;;;;;;13.82;10.68;;;;;;;;;;10005237;29;20106;-64
2021/04/06 22:47:32;;;;;;;10.88;8.90;;;;;;;;;;10005353;29;20079;-62
2021/04/06 22:52:29;;;;;;;10.98;8.93;;;;;;;;;;10005427;29;20080;-62
2021/04/06 22:57:29;;;;;;;10.70;7.85;;;;;;;;;;10005058;29;20082;-62
2021/04/06 23:02:27;;;;;;;9.18;7.72;;;;;;;;;;10004949;29;20075;-63
2021/04/06 23:07:24;;;;;;;8.30;7.03;;;;;;;;;;10004457;29;20776;-63
2021/04/06 23:12:21;;;;;;;11.32;7.45;;;;;;;;;;10002935;29;20402;-61
2021/04/06 23:17:19;;;;;;;8.82;6.85;;;;;;;;;;10004683;29;20414;-63
2021/04/06 23:22:17;;;;;;;9.00;6.82;;;;;;;;;;10004004;29;20476;-61
2021/04/06 23:27:14;;;;;;;8.52;7.40;;;;;;;;;;10004254;29;20048;-61
2021/04/06 23:32:11;;;;;;;9.43;6.97;;;;;;;;;;10009223;29;20079;-61
2021/04/06 23:37:10;;;;;;;13.02;7.32;;;;;;;;;;10006287;29;20079;-61
2021/04/06 23:42:07;;;;;;;10.48;7.63;;;;;;;;;;10042239;29;20500;-61
2021/04/06 23:47:04;;;;;;;10.65;7.47;;;;;;;;;;10033902;29;20056;-61
2021/04/06 23:52:02;;;;;;;8.25;7.05;;;;;;;;;;10002964;29;20501;-62
2021/04/06 23:57:00;;;;;;;10.85;7.28;;;;;;;;;;10002889;29;20056;-62
